Terminal Aerodrome Forecast
Issued by NWS Sterling, VA

Home | Current Version | Previous Version | Text Only | Print | Product List | Glossary On
Versions: 1 2 3 4 5 6 7 8 9 10 11 12 13 14 15 16 17 18 19 20 21 22 23 24
000
FTUS41 KLWX 311400 AAA
TAFIAD
TAF AMD
KIAD 311438Z 3115/0118 07004KT P6SM BKN050
     FM010800 01005KT P6SM OVC050
     FM011300 35009KT P6SM OVC040
     FM011500 35012KT P6SM OVC030=

USA.gov is the U.S. government's official web portal to all federal, state and local government web resources and services.